| time (UTC) | temp C | wind direction | speed KPH | gust KPH | rain 1hr cm | rain 24hr cm | rain mn cm | humidity % | barometer mb |
| 20260906230019 | 36 | 160 | 0.0 | 9.7 | 0.00 | 0.00 | 0.00 | 35 | 1011.0 |
| 20260906225513 | 36 | 78 | 14.5 | 19.3 | 0.00 | 0.00 | 0.00 | 35 | 1011.1 |
| 20260906225009 | 36 | 96 | 3.2 | 9.7 | 0.00 | 0.00 | 0.00 | 36 | 1010.9 |
| 20260906224505 | 36 | 95 | 9.7 | 12.9 | 0.00 | 0.00 | 0.00 | 35 | 1011.1 |
| 20260906224001 | 37 | 109 | 11.3 | 14.5 | 0.00 | 0.00 | 0.00 | 34 | 1010.9 |
| 20260906223457 | 37 | 88 | 6.4 | 11.3 | 0.00 | 0.00 | 0.00 | 35 | 1011.0 |
| 20260906222955 | 36 | 87 | 6.4 | 14.5 | 0.00 | 0.00 | 0.00 | 35 | 1011.1 |
| 20260906222450 | 37 | 114 | 6.4 | 11.3 | 0.00 | 0.00 | 0.00 | 35 | 1011.0 |
| 20260906221947 | 37 | 101 | 8.0 | 11.3 | 0.00 | 0.00 | 0.00 | 35 | 1011.3 |
| 20260906221446 | 37 | 100 | 8.0 | 14.5 | 0.00 | 0.00 | 0.00 | 34 | 1011.0 |
| 20260906220942 | 37 | 78 | 3.2 | 6.4 | 0.00 | 0.00 | 0.00 | 35 | 1011.0 |
| 20260906220437 | 38 | 105 | 4.8 | 6.4 | 0.00 | 0.00 | 0.00 | 34 | 1011.0 |
| 20260906215937 | 37 | 132 | 0.0 | 9.7 | 0.00 | 0.00 | 0.00 | 34 | 1011.1 |
| 20260906215437 | 37 | 88 | 4.8 | 11.3 | 0.00 | 0.00 | 0.00 | 35 | 1011.2 |
| 20260906214934 | 37 | 210 | 1.6 | 14.5 | 0.00 | 0.00 | 0.00 | 35 | 1010.9 |
| 20260906214429 | 37 | 104 | 4.8 | 14.5 | 0.00 | 0.00 | 0.00 | 36 | 1011.2 |
| 20260906213928 | 37 | 109 | 6.4 | 8.0 | 0.00 | 0.00 | 0.00 | 36 | 1011.2 |
| 20260906213422 | 36 | 124 | 9.7 | 12.9 | 0.00 | 0.00 | 0.00 | 37 | 1011.1 |
| 20260906212919 | 36 | 85 | 12.9 | 14.5 | 0.00 | 0.00 | 0.00 | 36 | 1011.6 |
| 20260906212415 | 37 | 98 | 8.0 | 16.1 | 0.00 | 0.00 | 0.00 | 35 | 1011.3 |
| 20260906211915 | 37 | 120 | 3.2 | 16.1 | 0.00 | 0.00 | 0.00 | 35 | 1011.6 |
| 20260906211411 | 37 | 122 | 8.0 | 14.5 | 0.00 | 0.00 | 0.00 | 36 | 1011.7 |
| 20260906210910 | 37 | 104 | 8.0 | 20.9 | 0.00 | 0.00 | 0.00 | 36 | 1011.9 |
| 20260906210407 | 37 | 124 | 11.3 | 20.9 | 0.00 | 0.00 | 0.00 | 36 | 1011.7 |
| 20260906205901 | 38 | 88 | 8.0 | 17.7 | 0.00 | 0.00 | 0.00 | 36 | 1012.1 |
| 20260906205357 | 37 | 226 | 4.8 | 8.0 | 0.00 | 0.00 | 0.00 | 36 | 1011.9 |
| 20260906204853 | 38 | 166 | 6.4 | 11.3 | 0.00 | 0.00 | 0.00 | 36 | 1011.9 |
| 20260906204351 | 37 | 193 | 4.8 | 9.7 | 0.00 | 0.00 | 0.00 | 37 | 1012.0 |
| 20260906203851 | 37 | 103 | 4.8 | 8.0 | 0.00 | 0.00 | 0.00 | 36 | 1012.2 |
| 20260906203347 | 37 | 130 | 11.3 | 12.9 | 0.00 | 0.00 | 0.00 | 36 | 1012.2 |
| 20260906202844 | 36 | 93 | 6.4 | 20.9 | 0.00 | 0.00 | 0.00 | 38 | 1012.3 |
| 20260906202338 | 37 | 118 | 4.8 | 14.5 | 0.00 | 0.00 | 0.00 | 38 | 1012.6 |
| 20260906201837 | 37 | 79 | 11.3 | 20.9 | 0.00 | 0.00 | 0.00 | 37 | 1012.4 |
| 20260906201333 | 37 | 234 | 8.0 | 14.5 | 0.00 | 0.00 | 0.00 | 37 | 1012.3 |
| 20260906200828 | 37 | 271 | 3.2 | 11.3 | 0.00 | 0.00 | 0.00 | 39 | 1012.5 |
| 20260906200324 | 36 | 87 | 12.9 | 20.9 | 0.00 | 0.00 | 0.00 | 38 | 1012.5 |
| 20260906195818 | 36 | 91 | 6.4 | 11.3 | 0.00 | 0.00 | 0.00 | 38 | 1012.8 |
| 20260906195315 | 37 | 89 | 11.3 | 14.5 | 0.00 | 0.00 | 0.00 | 37 | 1012.7 |
| 20260906194810 | 37 | 223 | 9.7 | 11.3 | 0.00 | 0.00 | 0.00 | 39 | 1012.9 |
| 20260906194301 | 37 | 85 | 14.5 | 16.1 | 0.00 | 0.00 | 0.00 | 39 | 1012.8 |
| 20260906193800 | 36 | 79 | 4.8 | 12.9 | 0.00 | 0.00 | 0.00 | 41 | 1012.9 |
| 20260906193255 | 35 | 120 | 8.0 | 16.1 | 0.00 | 0.00 | 0.00 | 41 | 1012.8 |
| 20260906192751 | 36 | 96 | 8.0 | 19.3 | 0.00 | 0.00 | 0.00 | 40 | 1012.8 |
| 20260906192245 | 36 | 87 | 4.8 | 11.3 | 0.00 | 0.00 | 0.00 | 40 | 1012.9 |
| 20260906191745 | 36 | 66 | 3.2 | 16.1 | 0.00 | 0.00 | 0.00 | 40 | 1013.2 |
| 20260906191240 | 36 | 92 | 11.3 | 19.3 | 0.00 | 0.00 | 0.00 | 39 | 1013.1 |
| 20260906190739 | 37 | 94 | 8.0 | 24.1 | 0.00 | 0.00 | 0.00 | 38 | 1013.1 |
| 20260906190234 | 36 | 91 | 6.4 | 16.1 | 0.00 | 0.00 | 0.00 | 38 | 1013.1 |
| 20260906185733 | 36 | 128 | 8.0 | 16.1 | 0.00 | 0.00 | 0.00 | 40 | 1013.0 |
| 20260906185233 | 35 | 88 | 8.0 | 9.7 | 0.00 | 0.00 | 0.00 | 41 | 1013.3 |
| 20260906184733 | 35 | 116 | 11.3 | 16.1 | 0.00 | 0.00 | 0.00 | 41 | 1013.3 |
| 20260906184228 | 35 | 187 | 14.5 | 20.9 | 0.00 | 0.00 | 0.00 | 40 | 1013.3 |
| 20260906183724 | 36 | 113 | 8.0 | 19.3 | 0.00 | 0.00 | 0.00 | 42 | 1013.4 |
| 20260906183220 | 36 | 88 | 8.0 | 12.9 | 0.00 | 0.00 | 0.00 | 40 | 1013.6 |
| 20260906182720 | 36 | 80 | 4.8 | 11.3 | 0.00 | 0.00 | 0.00 | 41 | 1013.6 |
| 20260906182216 | 36 | 109 | 9.7 | 16.1 | 0.00 | 0.00 | 0.00 | 42 | 1013.5 |
| 20260906181711 | 35 | 134 | 4.8 | 14.5 | 0.00 | 0.00 | 0.00 | 42 | 1013.5 |
| 20260906181208 | 35 | 73 | 8.0 | 14.5 | 0.00 | 0.00 | 0.00 | 43 | 1013.6 |
| 20260906180701 | 36 | 68 | 11.3 | 17.7 | 0.00 | 0.00 | 0.00 | 41 | 1013.9 |
| 20260906180156 | 35 | 61 | 9.7 | 19.3 | 0.00 | 0.00 | 0.00 | 41 | 1014.1 |
| 20260906175654 | 36 | 102 | 12.9 | 20.9 | 0.00 | 0.00 | 0.00 | 40 | 1013.9 |
| 20260906175149 | 36 | 129 | 9.7 | 14.5 | 0.00 | 0.00 | 0.00 | 41 | 1014.1 |
| 20260906174648 | 36 | 88 | 6.4 | 16.1 | 0.00 | 0.00 | 0.00 | 42 | 1014.2 |
| 20260906174143 | 36 | 103 | 14.5 | 17.7 | 0.00 | 0.00 | 0.00 | 41 | 1014.3 |
| 20260906173638 | 35 | 109 | 9.7 | 17.7 | 0.00 | 0.00 | 0.00 | 42 | 1014.5 |
| 20260906173134 | 36 | 101 | 8.0 | 22.5 | 0.00 | 0.00 | 0.00 | 41 | 1014.5 |
| 20260906172627 | 35 | 114 | 3.2 | 11.3 | 0.00 | 0.00 | 0.00 | 44 | 1014.6 |
| 20260906172123 | 36 | 209 | 3.2 | 11.3 | 0.00 | 0.00 | 0.00 | 43 | 1014.5 |
| 20260906171622 | 35 | 138 | 6.4 | 19.3 | 0.00 | 0.00 | 0.00 | 43 | 1014.6 |
| 20260906171119 | 35 | 81 | 4.8 | 12.9 | 0.00 | 0.00 | 0.00 | 43 | 1014.5 |
| 20260906170615 | 35 | 119 | 11.3 | 14.5 | 0.00 | 0.00 | 0.00 | 45 | 1014.6 |
| 20260906170114 | 35 | 83 | 8.0 | 9.7 | 0.00 | 0.00 | 0.00 | 45 | 1014.6 |
| 20260906165610 | 35 | 205 | 3.2 | 14.5 | 0.00 | 0.00 | 0.00 | 45 | 1014.7 |
| 20260906165105 | 35 | 172 | 4.8 | 11.3 | 0.00 | 0.00 | 0.00 | 44 | 1014.7 |
| 20260906164604 | 35 | 188 | 4.8 | 8.0 | 0.00 | 0.00 | 0.00 | 45 | 1014.9 |
| 20260906164100 | 35 | 87 | 4.8 | 14.5 | 0.00 | 0.00 | 0.00 | 45 | 1014.7 |
| 20260906163555 | 35 | 128 | 9.7 | 14.5 | 0.00 | 0.00 | 0.00 | 44 | 1014.7 |
| 20260906163051 | 35 | 133 | 8.0 | 8.0 | 0.00 | 0.00 | 0.00 | 46 | 1014.8 |
| 20260906162549 | 35 | 108 | 6.4 | 14.5 | 0.00 | 0.00 | 0.00 | 46 | 1014.8 |
| 20260906162043 | 35 | 86 | 8.0 | 9.7 | 0.00 | 0.00 | 0.00 | 46 | 1014.7 |
| 20260906161538 | 34 | 104 | 9.7 | 11.3 | 0.00 | 0.00 | 0.00 | 46 | 1014.7 |
| 20260906161037 | 35 | 215 | 4.8 | 9.7 | 0.00 | 0.00 | 0.00 | 45 | 1014.6 |
| 20260906160536 | 34 | 113 | 6.4 | 11.3 | 0.00 | 0.00 | 0.00 | 47 | 1014.6 |
| 20260906160035 | 34 | 117 | 8.0 | 14.5 | 0.00 | 0.00 | 0.00 | 46 | 1014.6 |
| 20260906155532 | 34 | 69 | 6.4 | 9.7 | 0.00 | 0.00 | 0.00 | 48 | 1014.5 |
| 20260906155028 | 33 | 140 | 4.8 | 9.7 | 0.00 | 0.00 | 0.00 | 48 | 1014.5 |
| 20260906154523 | 33 | 81 | 8.0 | 14.5 | 0.00 | 0.00 | 0.00 | 48 | 1014.5 |
| 20260906154022 | 33 | 73 | 12.9 | 14.5 | 0.00 | 0.00 | 0.00 | 49 | 1014.6 |
| 20260906153521 | 33 | 78 | 8.0 | 14.5 | 0.00 | 0.00 | 0.00 | 49 | 1014.4 |
| 20260906153017 | 32 | 126 | 12.9 | 16.1 | 0.00 | 0.00 | 0.00 | 52 | 1014.3 |
| 20260906152511 | 32 | 19 | 8.0 | 12.9 | 0.00 | 0.00 | 0.00 | 53 | 1014.5 |
| 20260906152010 | 32 | 28 | 11.3 | 14.5 | 0.00 | 0.00 | 0.00 | 54 | 1014.5 |
| 20260906151506 | 32 | 14 | 4.8 | 9.7 | 0.00 | 0.00 | 0.00 | 56 | 1014.4 |
| 20260906151002 | 32 | 17 | 8.0 | 9.7 | 0.00 | 0.00 | 0.00 | 54 | 1014.2 |
| 20260906150457 | 32 | 37 | 4.8 | 8.0 | 0.00 | 0.00 | 0.00 | 57 | 1014.1 |
| 20260906145955 | 32 | 113 | 3.2 | 14.5 | 0.00 | 0.00 | 0.00 | 57 | 1014.1 |
| 20260906145450 | 31 | 64 | 4.8 | 6.4 | 0.00 | 0.00 | 0.00 | 59 | 1014.2 |
| 20260906144949 | 31 | 45 | 6.4 | 6.4 | 0.00 | 0.00 | 0.00 | 60 | 1014.4 |
| 20260906144445 | 32 | 94 | 8.0 | 8.0 | 0.00 | 0.00 | 0.00 | 57 | 1014.2 |
| 20260906143940 | 31 | 55 | 4.8 | 6.4 | 0.00 | 0.00 | 0.00 | 61 | 1014.2 |
| 20260906143435 | 31 | 76 | 1.6 | 4.8 | 0.00 | 0.00 | 0.00 | 61 | 1014.3 |
| 20260906142931 | 31 | 100 | 1.6 | 4.8 | 0.00 | 0.00 | 0.00 | 61 | 1014.4 |
| 20260906142430 | 31 | 200 | 4.8 | 4.8 | 0.00 | 0.00 | 0.00 | 62 | 1014.2 |
| 20260906141925 | 30 | 203 | 4.8 | 6.4 | 0.00 | 0.00 | 0.00 | 63 | 1014.3 |
| 20260906141420 | 31 | 27 | 1.6 | 4.8 | 0.00 | 0.00 | 0.00 | 63 | 1014.4 |
| 20260906140920 | 30 | 2 | 0.0 | 4.8 | 0.00 | 0.00 | 0.00 | 66 | 1014.3 |
| 20260906140414 | 30 | 132 | 4.8 | 4.8 | 0.00 | 0.00 | 0.00 | 66 | 1014.3 |
| 20260906135913 | 30 | 87 | 1.6 | 6.4 | 0.00 | 0.00 | 0.00 | 67 | 1014.3 |
| 20260906135412 | 30 | 101 | 4.8 | 4.8 | 0.00 | 0.00 | 0.00 | 67 | 1014.3 |
| 20260906134902 | 30 | 80 | 4.8 | 8.0 | 0.00 | 0.00 | 0.00 | 68 | 1014.4 |
| 20260906134358 | 28 | 183 | 0.0 | 6.4 | 0.00 | 0.00 | 0.00 | 71 | 1014.3 |
| 20260906133852 | 28 | 105 | 1.6 | 4.8 | 0.00 | 0.00 | 0.00 | 71 | 1014.3 |
| 20260906133348 | 28 | 91 | 6.4 | 8.0 | 0.00 | 0.00 | 0.00 | 72 | 1014.3 |
| 20260906132843 | 28 | 118 | 3.2 | 8.0 | 0.00 | 0.00 | 0.00 | 73 | 1014.3 |
| 20260906132338 | 28 | 85 | 4.8 | 6.4 | 0.00 | 0.00 | 0.00 | 73 | 1014.5 |
| 20260906131834 | 28 | 82 | 6.4 | 8.0 | 0.00 | 0.00 | 0.00 | 73 | 1014.4 |
| 20260906131329 | 27 | 113 | 1.6 | 4.8 | 0.00 | 0.00 | 0.00 | 75 | 1014.4 |
| 20260906130825 | 27 | 92 | 4.8 | 6.4 | 0.00 | 0.00 | 0.00 | 75 | 1014.4 |
| 20260906130325 | 27 | 124 | 1.6 | 6.4 | 0.00 | 0.00 | 0.00 | 77 | 1014.3 |
| 20260906125823 | 27 | 98 | 3.2 | 4.8 | 0.00 | 0.00 | 0.00 | 77 | 1014.1 |
| 20260906125321 | 27 | 54 | 3.2 | 4.8 | 0.00 | 0.00 | 0.00 | 78 | 1014.2 |
| 20260906124816 | 26 | 125 | 0.0 | 4.8 | 0.00 | 0.00 | 0.00 | 79 | 1014.1 |
| 20260906124312 | 26 | 237 | 0.0 | 3.2 | 0.00 | 0.00 | 0.00 | 81 | 1014.0 |
| 20260906123811 | 25 | 139 | 0.0 | 3.2 | 0.00 | 0.00 | 0.00 | 83 | 1014.0 |
| 20260906123306 | 25 | 106 | 1.6 | 3.2 | 0.00 | 0.00 | 0.00 | 85 | 1014.0 |
| 20260906122805 | 25 | 252 | 0.0 | 3.2 | 0.00 | 0.00 | 0.00 | 87 | 1013.9 |
| 20260906122300 | 24 | 284 | 0.0 | 3.2 | 0.00 | 0.00 | 0.00 | 88 | 1013.9 |
| 20260906121757 | 24 | 253 | 0.0 | 3.2 | 0.00 | 0.00 | 0.00 | 89 | 1013.7 |
| 20260906121253 | 23 | 177 | 0.0 | 1.6 | 0.00 | 0.00 | 0.00 | 88 | 1014.0 |
| 20260906120748 | 23 | 32 | 0.0 | 1.6 | 0.00 | 0.00 | 0.00 | 88 | 1013.9 |
| 20260906120245 | 24 | 352 | 1.6 | 3.2 | 0.00 | 0.00 | 0.00 | 87 | 1013.6 |
| 20260906115740 | 24 | 295 | 0.0 | 3.2 | 0.00 | 0.00 | 0.00 | 87 | 1013.8 |
| 20260906115235 | 24 | 32 | 1.6 | 3.2 | 0.00 | 0.00 | 0.00 | 87 | 1013.7 |
| 20260906114734 | 24 | 6 | 0.0 | 3.2 | 0.00 | 0.00 | 0.00 | 87 | 1013.6 |
| 20260906114230 | 24 | 106 | 0.0 | 3.2 | 0.00 | 0.00 | 0.00 | 86 | 1013.5 |
| 20260906113725 | 24 | 202 | 0.0 | 3.2 | 0.00 | 0.00 | 0.00 | 86 | 1013.4 |
| 20260906113224 | 24 | 162 | 1.6 | 3.2 | 0.00 | 0.00 | 0.00 | 86 | 1013.6 |
| 20260906112724 | 25 | 116 | 0.0 | 3.2 | 0.00 | 0.00 | 0.00 | 86 | 1013.5 |
| 20260906112221 | 24 | 116 | 1.6 | 3.2 | 0.00 | 0.00 | 0.00 | 87 | 1013.5 |
| 20260906111720 | 24 | 71 | 1.6 | 3.2 | 0.00 | 0.00 | 0.00 | 86 | 1013.5 |
| 20260906111215 | 24 | 50 | 0.0 | 3.2 | 0.00 | 0.00 | 0.00 | 86 | 1013.4 |
| 20260906110710 | 25 | 115 | 1.6 | 1.6 | 0.00 | 0.00 | 0.00 | 86 | 1013.3 |
| 20260906110206 | 25 | 182 | 0.0 | 3.2 | 0.00 | 0.00 | 0.00 | 86 | 1013.3 |
| 20260906105659 | 25 | 302 | 0.0 | 3.2 | 0.00 | 0.00 | 0.00 | 85 | 1013.1 |
| 20260906105156 | 25 | 116 | 0.0 | 1.6 | 0.00 | 0.00 | 0.00 | 85 | 1013.2 |
| 20260906104655 | 25 | 154 | 0.0 | 1.6 | 0.00 | 0.00 | 0.00 | 84 | 1013.0 |
| 20260906104149 | 25 | 326 | 0.0 | 3.2 | 0.00 | 0.00 | 0.00 | 84 | 1013.0 |
| 20260906103647 | 25 | 121 | 0.0 | 3.2 | 0.00 | 0.00 | 0.00 | 84 | 1013.1 |
| 20260906103143 | 25 | 147 | 0.0 | 3.2 | 0.00 | 0.00 | 0.00 | 84 | 1012.9 |
| 20260906102637 | 25 | 0 | 0.0 | 1.6 | 0.00 | 0.00 | 0.00 | 84 | 1013.1 |
| 20260906102132 | 25 | 105 | 1.6 | 1.6 | 0.00 | 0.00 | 0.00 | 83 | 1013.1 |
| 20260906101631 | 25 | 136 | 1.6 | 3.2 | 0.00 | 0.00 | 0.00 | 82 | 1013.0 |
| 20260906101131 | 25 | 129 | 3.2 | 3.2 | 0.00 | 0.00 | 0.00 | 83 | 1012.9 |
| 20260906100627 | 25 | 135 | 0.0 | 3.2 | 0.00 | 0.00 | 0.00 | 82 | 1012.7 |
| 20260906100122 | 25 | 208 | 0.0 | 1.6 | 0.00 | 0.00 | 0.00 | 81 | 1013.1 |
| 20260906095621 | 25 | 109 | 0.0 | 3.2 | 0.00 | 0.00 | 0.00 | 82 | 1013.0 |
| 20260906095117 | 25 | 169 | 0.0 | 3.2 | 0.00 | 0.00 | 0.00 | 83 | 1012.9 |
| 20260906094616 | 25 | 313 | 0.0 | 1.6 | 0.00 | 0.00 | 0.00 | 82 | 1013.0 |
| 20260906094112 | 25 | 40 | 0.0 | 1.6 | 0.00 | 0.00 | 0.00 | 81 | 1012.9 |
| 20260906093608 | 26 | 89 | 0.0 | 1.6 | 0.00 | 0.00 | 0.00 | 80 | 1012.9 |
| 20260906093102 | 26 | 196 | 0.0 | 1.6 | 0.00 | 0.00 | 0.00 | 80 | 1012.7 |
| 20260906092558 | 26 | 9 | 1.6 | 3.2 | 0.00 | 0.00 | 0.00 | 80 | 1012.8 |
| 20260906092053 | 26 | 337 | 1.6 | 3.2 | 0.00 | 0.00 | 0.00 | 79 | 1012.8 |
| 20260906091548 | 26 | 75 | 1.6 | 3.2 | 0.00 | 0.00 | 0.00 | 79 | 1012.9 |
| 20260906091045 | 26 | 32 | 3.2 | 4.8 | 0.00 | 0.00 | 0.00 | 78 | 1012.6 |
| 20260906090545 | 26 | 127 | 1.6 | 1.6 | 0.00 | 0.00 | 0.00 | 77 | 1012.7 |
| 20260906090040 | 26 | 174 | 0.0 | 1.6 | 0.00 | 0.00 | 0.00 | 77 | 1012.5 |
| 20260906085539 | 26 | 75 | 0.0 | 1.6 | 0.00 | 0.00 | 0.00 | 77 | 1012.7 |
| 20260906085038 | 26 | 3 | 0.0 | 3.2 | 0.00 | 0.00 | 0.00 | 76 | 1012.4 |
| 20260906084533 | 26 | 179 | 3.2 | 3.2 | 0.00 | 0.00 | 0.00 | 76 | 1012.3 |
| 20260906084032 | 27 | 170 | 0.0 | 1.6 | 0.00 | 0.00 | 0.00 | 76 | 1012.3 |
| 20260906083528 | 27 | 131 | 0.0 | 1.6 | 0.00 | 0.00 | 0.00 | 75 | 1012.4 |
| 20260906083027 | 27 | 141 | 0.0 | 3.2 | 0.00 | 0.00 | 0.00 | 75 | 1012.4 |
| 20260906082522 | 27 | 96 | 1.6 | 6.4 | 0.00 | 0.00 | 0.00 | 75 | 1012.3 |
| 20260906082018 | 26 | 235 | 0.0 | 4.8 | 0.00 | 0.00 | 0.00 | 75 | 1012.3 |
| 20260906081514 | 26 | 227 | 0.0 | 1.6 | 0.00 | 0.00 | 0.00 | 75 | 1012.2 |
| 20260906081009 | 27 | 352 | 0.0 | 1.6 | 0.00 | 0.00 | 0.00 | 74 | 1012.2 |
| 20260906080506 | 27 | 202 | 0.0 | 1.6 | 0.00 | 0.00 | 0.00 | 73 | 1012.4 |
| 20260906080000 | 27 | 326 | 0.0 | 3.2 | 0.00 | 0.00 | 0.00 | 73 | 1012.4 |
| 20260906075450 | 27 | 179 | 1.6 | 3.2 | 0.00 | 0.00 | 0.00 | 73 | 1012.4 |
| 20260906074945 | 27 | 69 | 0.0 | 3.2 | 0.00 | 0.00 | 0.00 | 72 | 1012.3 |
| 20260906074444 | 27 | 141 | 1.6 | 4.8 | 0.00 | 0.00 | 0.00 | 72 | 1012.3 |
| 20260906073943 | 27 | 141 | 0.0 | 3.2 | 0.00 | 0.00 | 0.00 | 72 | 1012.6 |
| 20260906073438 | 27 | 213 | 0.0 | 3.2 | 0.00 | 0.00 | 0.00 | 71 | 1012.5 |
| 20260906072934 | 27 | 202 | 1.6 | 4.8 | 0.00 | 0.00 | 0.00 | 71 | 1012.5 |
| 20260906072429 | 27 | 110 | 0.0 | 4.8 | 0.00 | 0.00 | 0.00 | 71 | 1012.4 |
| 20260906071925 | 27 | 31 | 0.0 | 4.8 | 0.00 | 0.00 | 0.00 | 71 | 1012.5 |
| 20260906071422 | 27 | 192 | 0.0 | 4.8 | 0.00 | 0.00 | 0.00 | 71 | 1012.6 |
| 20260906070917 | 27 | 214 | 1.6 | 6.4 | 0.00 | 0.00 | 0.00 | 70 | 1012.8 |
| 20260906070413 | 27 | 152 | 3.2 | 4.8 | 0.00 | 0.00 | 0.00 | 70 | 1012.8 |
| 20260906065908 | 27 | 127 | 0.0 | 4.8 | 0.00 | 0.00 | 0.00 | 70 | 1012.6 |
| 20260906065402 | 27 | 191 | 3.2 | 4.8 | 0.00 | 0.00 | 0.00 | 70 | 1012.8 |
| 20260906064858 | 28 | 79 | 3.2 | 4.8 | 0.00 | 0.00 | 0.00 | 70 | 1013.0 |
| 20260906064354 | 28 | 181 | 3.2 | 4.8 | 0.00 | 0.00 | 0.00 | 70 | 1012.9 |
| 20260906063848 | 28 | 183 | 3.2 | 4.8 | 0.00 | 0.00 | 0.00 | 70 | 1012.8 |
| 20260906063344 | 28 | 191 | 4.8 | 4.8 | 0.00 | 0.00 | 0.00 | 70 | 1012.7 |
| 20260906062839 | 27 | 169 | 3.2 | 4.8 | 0.00 | 0.00 | 0.00 | 70 | 1012.7 |
| 20260906062338 | 27 | 117 | 0.0 | 3.2 | 0.00 | 0.00 | 0.00 | 69 | 1012.7 |
| 20260906061833 | 28 | 252 | 0.0 | 4.8 | 0.00 | 0.00 | 0.00 | 69 | 1012.8 |
| 20260906061330 | 28 | 171 | 0.0 | 3.2 | 0.00 | 0.00 | 0.00 | 68 | 1012.5 |
| 20260906060824 | 28 | 158 | 0.0 | 1.6 | 0.00 | 0.00 | 0.00 | 68 | 1012.7 |
| 20260906060322 | 28 | 186 | 0.0 | 3.2 | 0.00 | 0.00 | 0.00 | 67 | 1012.4 |
| 20260906055817 | 28 | 151 | 0.0 | 3.2 | 0.00 | 0.00 | 0.00 | 67 | 1012.5 |
| 20260906055313 | 28 | 206 | 3.2 | 4.8 | 0.00 | 0.00 | 0.00 | 66 | 1012.6 |
| 20260906054808 | 28 | 209 | 0.0 | 4.8 | 0.00 | 0.00 | 0.00 | 66 | 1012.8 |
| 20260906054303 | 28 | 184 | 0.0 | 4.8 | 0.00 | 0.00 | 0.00 | 66 | 1012.9 |
| 20260906053800 | 28 | 141 | 0.0 | 4.8 | 0.00 | 0.00 | 0.00 | 66 | 1012.6 |
| 20260906053255 | 28 | 121 | 1.6 | 3.2 | 0.00 | 0.00 | 0.00 | 65 | 1012.9 |
| 20260906052750 | 28 | 123 | 0.0 | 4.8 | 0.00 | 0.00 | 0.00 | 65 | 1012.9 |
| 20260906052247 | 28 | 195 | 0.0 | 4.8 | 0.00 | 0.00 | 0.00 | 65 | 1013.0 |
| 20260906051743 | 28 | 230 | 0.0 | 4.8 | 0.00 | 0.00 | 0.00 | 64 | 1012.9 |
| 20260906051244 | 29 | 259 | 0.0 | 3.2 | 0.00 | 0.00 | 0.00 | 64 | 1013.2 |
| 20260906050739 | 29 | 89 | 3.2 | 4.8 | 0.00 | 0.00 | 0.00 | 64 | 1013.0 |
| 20260906050233 | 29 | 186 | 4.8 | 6.4 | 0.00 | 0.00 | 0.00 | 63 | 1012.8 |
| 20260906045732 | 29 | 148 | 1.6 | 4.8 | 0.00 | 0.00 | 0.00 | 63 | 1012.9 |
| 20260906045222 | 29 | 258 | 0.0 | 8.0 | 0.00 | 0.00 | 0.00 | 62 | 1012.9 |
| 20260906044717 | 29 | 338 | 1.6 | 3.2 | 0.00 | 0.00 | 0.00 | 62 | 1013.0 |
| 20260906044212 | 29 | 165 | 3.2 | 8.0 | 0.00 | 0.00 | 0.00 | 62 | 1012.9 |
| 20260906043708 | 29 | 158 | 3.2 | 6.4 | 0.00 | 0.00 | 0.00 | 61 | 1012.9 |
| 20260906043203 | 29 | 169 | 4.8 | 8.0 | 0.00 | 0.00 | 0.00 | 61 | 1012.9 |
| 20260906042703 | 30 | 150 | 3.2 | 4.8 | 0.00 | 0.00 | 0.00 | 61 | 1012.9 |
| 20260906042156 | 30 | 157 | 0.0 | 8.0 | 0.00 | 0.00 | 0.00 | 60 | 1012.8 |
| 20260906041652 | 30 | 91 | 1.6 | 6.4 | 0.00 | 0.00 | 0.00 | 60 | 1012.5 |
| 20260906041147 | 30 | 145 | 3.2 | 8.0 | 0.00 | 0.00 | 0.00 | 59 | 1012.7 |
| 20260906040643 | 30 | 181 | 3.2 | 4.8 | 0.00 | 0.00 | 0.00 | 59 | 1012.8 |
| 20260906040138 | 30 | 213 | 3.2 | 4.8 | 0.00 | 0.00 | 0.00 | 58 | 1012.7 |
| 20260906035633 | 30 | 167 | 8.0 | 9.7 | 0.00 | 0.00 | 0.00 | 58 | 1012.8 |
| 20260906035129 | 30 | 204 | 8.0 | 8.0 | 0.00 | 0.00 | 0.00 | 58 | 1012.8 |
| 20260906034630 | 30 | 189 | 4.8 | 9.7 | 0.00 | 0.00 | 0.00 | 58 | 1012.9 |
| 20260906034124 | 30 | 224 | 3.2 | 4.8 | 0.00 | 0.00 | 0.00 | 59 | 1012.8 |
| 20260906033620 | 30 | 150 | 3.2 | 6.4 | 0.00 | 0.00 | 0.00 | 58 | 1012.8 |
| 20260906033120 | 30 | 44 | 3.2 | 6.4 | 0.00 | 0.00 | 0.00 | 58 | 1012.8 |
| 20260906032617 | 30 | 202 | 0.0 | 6.4 | 0.00 | 0.00 | 0.00 | 58 | 1012.9 |
| 20260906032116 | 30 | 167 | 0.0 | 4.8 | 0.00 | 0.00 | 0.00 | 57 | 1012.9 |
| 20260906031612 | 30 | 201 | 4.8 | 8.0 | 0.00 | 0.00 | 0.00 | 56 | 1012.8 |
| 20260906031107 | 30 | 145 | 4.8 | 8.0 | 0.00 | 0.00 | 0.00 | 56 | 1012.8 |
| 20260906030606 | 30 | 134 | 3.2 | 6.4 | 0.00 | 0.00 | 0.00 | 56 | 1012.8 |
| 20260906030101 | 31 | 155 | 3.2 | 8.0 | 0.00 | 0.00 | 0.00 | 55 | 1012.7 |
| 20260906025555 | 31 | 220 | 9.7 | 9.7 | 0.00 | 0.00 | 0.00 | 55 | 1012.7 |
| 20260906025054 | 31 | 182 | 3.2 | 8.0 | 0.00 | 0.00 | 0.00 | 54 | 1012.7 |
| 20260906024549 | 31 | 197 | 4.8 | 14.5 | 0.00 | 0.00 | 0.00 | 53 | 1012.6 |
| 20260906024043 | 31 | 159 | 3.2 | 9.7 | 0.00 | 0.00 | 0.00 | 53 | 1012.4 |
| 20260906023540 | 31 | 185 | 3.2 | 4.8 | 0.00 | 0.00 | 0.00 | 52 | 1012.5 |
| 20260906023034 | 32 | 164 | 3.2 | 6.4 | 0.00 | 0.00 | 0.00 | 51 | 1012.5 |
| 20260906022530 | 32 | 198 | 4.8 | 12.9 | 0.00 | 0.00 | 0.00 | 51 | 1012.0 |
| 20260906022025 | 32 | 199 | 8.0 | 14.5 | 0.00 | 0.00 | 0.00 | 50 | 1012.1 |
| 20260906021520 | 32 | 349 | 0.0 | 6.4 | 0.00 | 0.00 | 0.00 | 50 | 1012.1 |
| 20260906021014 | 32 | 127 | 3.2 | 9.7 | 0.00 | 0.00 | 0.00 | 49 | 1011.9 |
| 20260906020514 | 32 | 149 | 3.2 | 8.0 | 0.00 | 0.00 | 0.00 | 49 | 1012.0 |
| 20260906020013 | 32 | 130 | 0.0 | 8.0 | 0.00 | 0.00 | 0.00 | 47 | 1012.0 |
| 20260906015512 | 32 | 147 | 3.2 | 3.2 | 0.00 | 0.00 | 0.00 | 46 | 1012.1 |
| 20260906015007 | 32 | 55 | 0.0 | 3.2 | 0.00 | 0.00 | 0.00 | 45 | 1011.8 |
| 20260906014502 | 32 | 129 | 0.0 | 1.6 | 0.00 | 0.00 | 0.00 | 45 | 1011.6 |
| 20260906013957 | 32 | 99 | 0.0 | 3.2 | 0.00 | 0.00 | 0.00 | 44 | 1011.6 |
| 20260906013453 | 33 | 93 | 1.6 | 3.2 | 0.00 | 0.00 | 0.00 | 44 | 1011.6 |
| 20260906012948 | 33 | 78 | 3.2 | 6.4 | 0.00 | 0.00 | 0.00 | 43 | 1011.2 |
| 20260906012442 | 33 | 83 | 1.6 | 4.8 | 0.00 | 0.00 | 0.00 | 43 | 1011.3 |
| 20260906011942 | 33 | 105 | 4.8 | 4.8 | 0.00 | 0.00 | 0.00 | 43 | 1011.5 |
| 20260906011437 | 33 | 98 | 0.0 | 6.4 | 0.00 | 0.00 | 0.00 | 42 | 1011.2 |
| 20260906010932 | 33 | 108 | 1.6 | 6.4 | 0.00 | 0.00 | 0.00 | 42 | 1011.2 |
| 20260906010428 | 33 | 98 | 3.2 | 4.8 | 0.00 | 0.00 | 0.00 | 42 | 1011.2 |
| 20260906005924 | 33 | 98 | 4.8 | 4.8 | 0.00 | 0.00 | 0.00 | 41 | 1011.1 |
| 20260906005423 | 34 | 127 | 4.8 | 6.4 | 0.00 | 0.00 | 0.00 | 41 | 1011.0 |
| 20260906004922 | 34 | 97 | 1.6 | 4.8 | 0.00 | 0.00 | 0.00 | 41 | 1011.1 |
| 20260906004416 | 34 | 106 | 4.8 | 8.0 | 0.00 | 0.00 | 0.00 | 40 | 1011.1 |
| 20260906003912 | 35 | 92 | 3.2 | 4.8 | 0.00 | 0.00 | 0.00 | 40 | 1010.9 |
| 20260906003407 | 35 | 95 | 3.2 | 8.0 | 0.00 | 0.00 | 0.00 | 39 | 1011.1 |
| 20260906002902 | 35 | 107 | 8.0 | 11.3 | 0.00 | 0.00 | 0.00 | 38 | 1010.9 |
| 20260906002401 | 35 | 112 | 3.2 | 6.4 | 0.00 | 0.00 | 0.00 | 38 | 1011.0 |
| 20260906001852 | 36 | 112 | 1.6 | 6.4 | 0.00 | 0.00 | 0.00 | 37 | 1011.0 |
| 20260906001348 | 36 | 224 | 1.6 | 11.3 | 0.00 | 0.00 | 0.00 | 37 | 1011.1 |
| 20260906000843 | 36 | 144 | 6.4 | 8.0 | 0.00 | 0.00 | 0.00 | 37 | 1011.0 |
| 20260906000342 | 36 | 84 | 6.4 | 8.0 | 0.00 | 0.00 | 0.00 | 36 | 1011.1 |
| 20260905235837 | 36 | 65 | 0.0 | 3.2 | 0.00 | 0.00 | 0.00 | 36 | 1010.8 |
| 20260905235337 | 36 | 129 | 6.4 | 8.0 | 0.00 | 0.00 | 0.00 | 36 | 1010.9 |
| 20260905234832 | 36 | 71 | 8.0 | 8.0 | 0.00 | 0.00 | 0.00 | 36 | 1010.7 |
| 20260905234327 | 36 | 106 | 6.4 | 9.7 | 0.00 | 0.00 | 0.00 | 36 | 1010.8 |
| 20260905233822 | 36 | 83 | 6.4 | 9.7 | 0.00 | 0.00 | 0.00 | 36 | 1010.6 |
| 20260905233317 | 36 | 116 | 4.8 | 4.8 | 0.00 | 0.00 | 0.00 | 36 | 1010.6 |
| 20260905232816 | 36 | 172 | 1.6 | 14.5 | 0.00 | 0.00 | 0.00 | 36 | 1010.8 |
| 20260905232313 | 37 | 115 | 4.8 | 6.4 | 0.00 | 0.00 | 0.00 | 36 | 1010.7 |
| 20260905231808 | 36 | 66 | 3.2 | 9.7 | 0.00 | 0.00 | 0.00 | 36 | 1010.7 |
| 20260905231303 | 36 | 223 | 3.2 | 4.8 | 0.00 | 0.00 | 0.00 | 36 | 1010.9 |
| 20260905230754 | 37 | 64 | 8.0 | 11.3 | 0.00 | 0.00 | 0.00 | 35 | 1010.9 |
| 20260905230251 | 37 | 79 | 4.8 | 8.0 | 0.00 | 0.00 | 0.00 | 35 | 1010.8 |